Time;durP1;ratioP1;P1;durP2;ratioP2;P2;SDS_P1;SDS_P2;PMS_P1;PMS_P2;Temp;Humidity;BMP_temperature;BMP_pressure;BME280_temperature;BME280_humidity;BME280_pressure;Samples;Min_cycle;Max_cycle;Signal;HPM_P1;HPM_P2
2021/06/12 00:01:19;;;;;;;16.88;12.05;;;;;;;15.56;87.63;97055.59;5038503;28;20124;-65
2021/06/12 00:03:45;;;;;;;16.73;11.23;;;;;;;15.31;88.93;97050.78;5044131;28;20055;-64
2021/06/12 00:06:11;;;;;;;15.93;11.27;;;;;;;15.12;90.36;97053.88;5039374;28;20135;-64
2021/06/12 00:08:36;;;;;;;15.05;11.10;;;;;;;14.96;91.33;97049.44;5024994;28;20175;-66
2021/06/12 00:11:02;;;;;;;14.60;11.70;;;;;;;14.99;90.84;97047.91;5042562;28;20378;-61
2021/06/12 00:13:29;;;;;;;15.77;11.45;;;;;;;14.94;91.36;97046.28;5022003;28;20465;-67
2021/06/12 00:15:55;;;;;;;17.25;10.73;;;;;;;15.02;90.44;97044.38;5043271;28;20060;-67
2021/06/12 00:18:22;;;;;;;18.58;12.43;;;;;;;14.60;92.65;97049.25;5037834;28;20040;-64
2021/06/12 00:20:47;;;;;;;16.45;11.95;;;;;;;14.50;94.40;97047.22;5037394;28;20091;-63
2021/06/12 00:23:13;;;;;;;15.23;10.88;;;;;;;14.50;94.57;97036.19;5037736;28;20434;-65
2021/06/12 00:25:38;;;;;;;15.05;10.82;;;;;;;14.62;93.99;97040.63;5041116;28;20449;-65
2021/06/12 00:28:06;;;;;;;12.55;9.75;;;;;;;14.68;93.62;97044.59;5039843;28;20041;-60
2021/06/12 00:30:31;;;;;;;13.57;10.35;;;;;;;14.76;93.36;97045.44;5043238;28;20037;-66
2021/06/12 00:32:57;;;;;;;12.02;9.98;;;;;;;14.85;92.50;97043.09;5042504;28;20059;-65
2021/06/12 00:35:23;;;;;;;13.48;10.60;;;;;;;15.00;91.14;97043.94;5037843;28;20312;-65
2021/06/12 00:37:49;;;;;;;13.65;9.23;;;;;;;15.11;91.03;97044.81;5042068;28;20044;-66
2021/06/12 00:40:16;;;;;;;11.65;9.55;;;;;;;15.20;90.31;97044.47;5037055;28;20040;-64
2021/06/12 00:42:44;;;;;;;14.80;9.75;;;;;;;15.20;90.08;97036.97;5042593;28;20045;-66
2021/06/12 00:45:18;;;;;;;17.33;10.25;;;;;;;15.08;89.22;97037.31;5018513;28;20049;-63
2021/06/12 00:47:44;;;;;;;16.73;10.82;;;;;;;14.86;89.96;97036.44;5040484;28;20056;-65
2021/06/12 00:50:11;;;;;;;13.95;10.27;;;;;;;14.36;93.06;97041.63;5034251;28;20089;-66
2021/06/12 00:52:37;;;;;;;15.85;11.30;;;;;;;14.25;94.36;97038.78;5048567;28;20396;-66
2021/06/12 00:55:05;;;;;;;15.95;11.55;;;;;;;14.23;94.04;97043.88;5050778;28;20068;-59
2021/06/12 00:57:32;;;;;;;14.88;10.52;;;;;;;14.35;94.05;97032.56;5045367;28;20461;-64
2021/06/12 00:59:57;;;;;;;13.68;10.15;;;;;;;14.52;94.03;97039.34;5042590;28;20485;-66
2021/06/12 01:02:23;;;;;;;14.90;10.20;;;;;;;14.65;92.93;97042.59;5036725;28;20056;-66
2021/06/12 01:04:49;;;;;;;15.20;10.15;;;;;;;14.78;92.01;97040.31;5043052;28;20057;-63
2021/06/12 01:07:14;;;;;;;17.75;10.07;;;;;;;14.99;90.56;97034.13;5036960;28;20076;-64
2021/06/12 01:09:39;;;;;;;12.50;9.73;;;;;;;15.08;90.15;97035.31;5041425;28;20029;-66
2021/06/12 01:12:38;;;;;;;15.65;10.80;;;;;;;15.11;89.97;97039.28;5037169;28;20498;-65
2021/06/12 01:15:06;;;;;;;15.65;10.55;;;;;;;15.13;89.95;97041.66;4993453;28;20383;-62
2021/06/12 01:17:58;;;;;;;13.68;10.38;;;;;;;15.13;89.60;97041.66;5004394;28;20045;-66
2021/06/12 01:20:39;;;;;;;16.10;9.10;;;;;;;15.10;89.96;97032.19;5032686;28;20065;-66
2021/06/12 01:23:41;;;;;;;14.02;9.55;;;;;;;15.09;89.05;97028.66;5023344;28;20045;-63
2021/06/12 01:26:44;;;;;;;17.50;10.18;;;;;;;15.08;89.02;97031.78;5046306;28;20040;-65
2021/06/12 01:29:28;;;;;;;12.93;9.77;;;;;;;14.90;89.03;97024.22;5060352;28;20040;-67
2021/06/12 01:31:55;;;;;;;12.23;9.27;;;;;;;14.89;89.65;97025.41;5049678;28;20045;-64
2021/06/12 01:34:23;;;;;;;16.17;9.52;;;;;;;14.81;89.85;97029.31;5029771;28;20429;-63
2021/06/12 01:36:49;;;;;;;14.27;10.13;;;;;;;14.70;89.68;97022.94;5007619;28;20037;-65
2021/06/12 01:39:19;;;;;;;11.35;9.52;;;;;;;14.70;90.05;97028.47;5035742;28;20033;-65
2021/06/12 01:41:47;;;;;;;15.00;9.60;;;;;;;14.71;89.79;97022.56;5039255;28;20045;-65
2021/06/12 01:44:13;;;;;;;13.05;9.10;;;;;;;14.70;89.84;97026.50;5036229;28;20112;-63
2021/06/12 01:46:39;;;;;;;14.43;10.40;;;;;;;14.78;89.27;97024.56;5042404;28;20049;-65
2021/06/12 01:49:05;;;;;;;15.45;9.57;;;;;;;14.81;89.04;97028.53;5035989;28;20032;-63
2021/06/12 01:51:32;;;;;;;11.95;9.18;;;;;;;14.82;88.87;97021.81;5056649;28;20044;-63
2021/06/12 01:53:58;;;;;;;12.18;9.40;;;;;;;14.74;88.31;97028.47;5061665;28;20051;-67
2021/06/12 01:56:26;;;;;;;14.20;9.40;;;;;;;14.71;89.04;97035.53;5060457;28;20603;-66
2021/06/12 01:58:53;;;;;;;15.35;9.52;;;;;;;14.53;88.39;97032.66;5061847;28;20079;-65
2021/06/12 02:01:20;;;;;;;12.57;9.38;;;;;;;14.43;89.62;97033.41;5057137;28;20051;-65
2021/06/12 02:03:48;;;;;;;17.23;9.65;;;;;;;14.28;89.98;97029.75;5072000;28;20120;-65
2021/06/12 02:06:18;;;;;;;16.73;9.55;;;;;;;14.38;90.33;97023.50;5057269;28;20061;-68
2021/06/12 02:08:45;;;;;;;12.30;9.18;;;;;;;14.34;90.45;97031.75;5059119;28;20045;-66
2021/06/12 02:11:17;;;;;;;14.75;10.75;;;;;;;14.22;90.40;97032.06;5055123;28;20043;-66
2021/06/12 02:13:43;;;;;;;16.63;9.52;;;;;;;14.17;90.55;97032.44;5056039;28;20068;-64
2021/06/12 02:16:10;;;;;;;17.27;10.05;;;;;;;14.27;91.65;97039.97;5020389;28;20388;-65
2021/06/12 02:18:37;;;;;;;13.65;9.43;;;;;;;14.36;90.87;97036.88;5037440;28;20075;-66
2021/06/12 02:21:04;;;;;;;11.10;9.02;;;;;;;14.31;90.34;97045.50;5036291;28;20045;-63
2021/06/12 02:23:30;;;;;;;18.50;9.48;;;;;;;14.19;90.83;97043.84;5037884;28;20037;-66
2021/06/12 02:25:57;;;;;;;17.27;9.35;;;;;;;14.13;90.55;97040.66;5020997;28;20537;-65
2021/06/12 02:28:29;;;;;;;14.85;9.43;;;;;;;13.99;90.71;97037.81;5030944;28;20888;-66
2021/06/12 02:31:35;;;;;;;12.90;9.88;;;;;;;13.86;92.00;97031.00;5040188;28;20044;-64
2021/06/12 02:34:01;;;;;;;13.13;9.77;;;;;;;13.61;93.85;97034.28;5039710;28;20053;-66
2021/06/12 02:36:26;;;;;;;14.45;10.98;;;;;;;13.03;96.47;97040.31;5039640;28;20045;-67
2021/06/12 02:38:52;;;;;;;14.90;11.80;;;;;;;12.82;97.95;97034.19;5049657;28;20039;-67
2021/06/12 02:41:17;;;;;;;17.00;10.88;;;;;;;12.88;98.58;97033.88;5044232;28;20512;-68
2021/06/12 02:43:43;;;;;;;16.73;10.63;;;;;;;13.16;98.46;97030.66;5039810;28;20107;-63
2021/06/12 02:46:16;;;;;;;14.85;11.05;;;;;;;13.41;97.16;97033.69;5032948;28;20045;-65
2021/06/12 02:48:44;;;;;;;15.93;10.00;;;;;;;13.49;96.03;97038.13;5030295;28;20053;-65
2021/06/12 02:51:10;;;;;;;15.18;10.27;;;;;;;13.47;95.11;97039.66;5034011;28;20041;-65
2021/06/12 02:53:38;;;;;;;15.80;10.27;;;;;;;13.50;94.95;97036.94;5034469;28;20076;-66
2021/06/12 02:56:05;;;;;;;14.85;11.15;;;;;;;13.58;95.16;97030.34;5035770;28;20137;-63
2021/06/12 02:58:31;;;;;;;12.35;10.02;;;;;;;13.73;94.51;97033.22;5036322;28;20037;-66
2021/06/12 03:00:57;;;;;;;17.20;10.35;;;;;;;13.81;93.42;97034.09;5038666;28;20056;-67
2021/06/12 03:03:25;;;;;;;14.10;9.75;;;;;;;13.70;91.63;97033.97;5027282;28;20951;-65
2021/06/12 03:05:55;;;;;;;12.57;9.20;;;;;;;13.64;92.71;97046.53;5039815;28;20501;-66
2021/06/12 03:08:22;;;;;;;12.07;9.10;;;;;;;13.67;93.02;97043.03;5036020;28;20056;-64
2021/06/12 03:10:51;;;;;;;14.40;9.65;;;;;;;13.86;93.12;97044.75;5033257;28;20045;-64
2021/06/12 03:13:22;;;;;;;11.70;8.95;;;;;;;13.80;91.01;97041.56;5040152;22;20045;-64
2021/06/12 03:15:48;;;;;;;12.20;9.35;;;;;;;13.89;92.47;97046.75;5039170;28;20076;-64
2021/06/12 03:18:14;;;;;;;13.05;9.93;;;;;;;13.93;91.66;97042.06;5038429;28;20378;-64
2021/06/12 03:20:41;;;;;;;15.25;9.02;;;;;;;13.85;91.06;97040.44;5040068;28;20041;-64
2021/06/12 03:23:08;;;;;;;13.65;9.40;;;;;;;13.92;91.72;97043.25;5041446;28;20455;-65
2021/06/12 03:25:34;;;;;;;12.52;9.65;;;;;;;13.77;90.42;97036.81;5047457;28;20370;-64
2021/06/12 03:28:00;;;;;;;12.35;9.32;;;;;;;13.63;91.03;97042.16;5060250;28;20127;-64
2021/06/12 03:30:27;;;;;;;17.65;10.65;;;;;;;13.55;91.49;97044.06;5053974;28;20139;-63
2021/06/12 03:32:53;;;;;;;15.85;9.77;;;;;;;13.60;92.14;97040.97;5048519;28;20146;-63
2021/06/12 03:35:19;;;;;;;14.90;10.07;;;;;;;13.66;92.09;97036.69;5035823;28;20037;-65
2021/06/12 03:37:47;;;;;;;15.10;10.30;;;;;;;13.58;91.20;97035.84;5040403;28;20454;-64
2021/06/12 03:40:13;;;;;;;12.38;9.23;;;;;;;13.49;91.29;97035.38;5035482;28;20040;-64
2021/06/12 03:42:39;;;;;;;11.63;9.43;;;;;;;13.47;91.90;97034.16;5040464;28;20037;-64
2021/06/12 03:45:08;;;;;;;12.65;9.23;;;;;;;13.51;91.74;97046.00;5043372;28;20045;-64
2021/06/12 03:47:35;;;;;;;13.82;10.02;;;;;;;13.63;93.10;97048.50;5047298;28;20139;-64
2021/06/12 03:50:03;;;;;;;12.73;9.85;;;;;;;13.72;92.46;97042.66;5060948;28;20040;-64
2021/06/12 03:52:29;;;;;;;15.18;10.13;;;;;;;13.58;92.58;97043.31;5046583;28;20052;-64
2021/06/12 03:54:59;;;;;;;14.05;10.32;;;;;;;13.56;92.92;97040.94;5030751;28;20044;-64
2021/06/12 03:57:25;;;;;;;13.38;8.57;;;;;;;13.77;93.03;97042.31;5043912;28;20048;-64
2021/06/12 03:59:52;;;;;;;16.00;9.90;;;;;;;14.17;91.26;97045.41;5069058;28;20055;-63
2021/06/12 04:02:18;;;;;;;12.98;8.57;;;;;;;14.46;89.45;97040.91;5046718;28;20052;-65
2021/06/12 04:04:45;;;;;;;10.63;8.65;;;;;;;14.63;88.22;97045.75;5052713;28;20508;-64
2021/06/12 04:07:11;;;;;;;14.02;8.52;;;;;;;14.72;87.52;97053.69;5047373;28;20052;-65
2021/06/12 04:09:36;;;;;;;14.65;9.38;;;;;;;14.75;86.84;97057.63;5046565;28;20044;-63
2021/06/12 04:12:02;;;;;;;12.00;8.35;;;;;;;14.64;86.86;97055.59;5039940;28;20037;-66
2021/06/12 04:14:28;;;;;;;21.70;8.73;;;;;;;14.88;86.37;97058.88;5039275;28;20049;-64
2021/06/12 04:16:53;;;;;;;11.65;8.38;;;;;;;15.04;85.48;97064.09;5034112;28;20048;-61
2021/06/12 04:19:18;;;;;;;10.63;8.48;;;;;;;15.13;85.14;97055.47;5044015;28;20128;-63
2021/06/12 04:21:44;;;;;;;13.65;8.40;;;;;;;15.17;84.82;97068.06;5053926;28;20044;-63
2021/06/12 04:24:09;;;;;;;11.20;8.38;;;;;;;15.33;84.30;97064.22;5049621;28;20036;-63
2021/06/12 04:26:35;;;;;;;14.20;8.55;;;;;;;15.44;83.54;97070.53;5052946;28;20045;-63
2021/06/12 04:29:00;;;;;;;12.30;8.35;;;;;;;15.67;82.84;97070.22;5061496;28;20040;-64
2021/06/12 04:31:26;;;;;;;12.93;8.30;;;;;;;15.91;81.47;97063.16;5048216;28;20059;-63
2021/06/12 04:33:51;;;;;;;12.57;8.55;;;;;;;16.18;79.82;97062.78;5052345;28;20036;-63
2021/06/12 04:36:17;;;;;;;14.93;8.88;;;;;;;16.37;78.46;97058.84;5046241;28;20051;-62
2021/06/12 04:38:42;;;;;;;11.73;8.25;;;;;;;16.57;78.64;97064.75;5050370;28;20383;-64
2021/06/12 04:41:07;;;;;;;19.60;8.00;;;;;;;16.95;76.56;97070.63;5051728;28;20101;-63
2021/06/12 04:43:33;;;;;;;10.82;7.60;;;;;;;17.39;75.13;97066.50;5058883;28;20045;-63
2021/06/12 04:45:58;;;;;;;13.05;7.53;;;;;;;17.73;73.60;97058.38;5062549;28;20040;-64
2021/06/12 04:48:24;;;;;;;10.45;7.13;;;;;;;18.41;72.84;97061.88;5056808;28;20872;-63
2021/06/12 04:50:49;;;;;;;9.75;6.68;;;;;;;19.71;67.85;97059.22;5062545;28;20051;-62
2021/06/12 04:53:15;;;;;;;12.15;6.78;;;;;;;20.32;63.33;97060.34;5036671;28;20698;-61
2021/06/12 04:55:40;;;;;;;9.75;6.60;;;;;;;20.60;61.92;97059.06;5052397;28;20055;-62
2021/06/12 04:58:09;;;;;;;8.63;6.40;;;;;;;20.04;65.10;97063.16;5040292;28;20090;-63
2021/06/12 05:00:35;;;;;;;10.10;6.55;;;;;;;20.37;63.35;97063.41;5051649;28;20044;-63
2021/06/12 05:03:00;;;;;;;10.13;6.03;;;;;;;22.57;57.78;97067.28;5065357;28;20044;-63
2021/06/12 05:05:25;;;;;;;6.80;5.03;;;;;;;24.18;52.69;97070.31;5063305;28;20053;-64
2021/06/12 05:07:51;;;;;;;6.45;4.95;;;;;;;25.42;49.04;97060.13;5060621;28;20093;-65
2021/06/12 05:10:16;;;;;;;7.25;5.00;;;;;;;26.37;46.68;97073.69;5050859;28;20049;-65
2021/06/12 05:12:41;;;;;;;8.60;5.57;;;;;;;26.61;43.69;97067.53;5050046;28;20128;-64
2021/06/12 05:15:09;;;;;;;8.07;5.25;;;;;;;25.81;46.12;97064.25;5039262;28;20504;-65
2021/06/12 05:17:36;;;;;;;6.20;4.68;;;;;;;26.55;44.89;97072.94;5050164;28;20040;-64
2021/06/12 05:20:04;;;;;;;8.02;5.25;;;;;;;27.06;42.90;97064.00;5040962;28;20049;-65
2021/06/12 05:22:29;;;;;;;6.82;4.82;;;;;;;27.67;41.19;97054.84;5042214;28;20819;-63
2021/06/12 05:24:56;;;;;;;11.70;4.78;;;;;;;28.35;40.38;97048.81;5052242;28;20052;-63
2021/06/12 05:27:22;;;;;;;5.90;4.55;;;;;;;29.59;38.52;97061.06;5040939;28;20243;-64
2021/06/12 05:29:48;;;;;;;6.15;4.47;;;;;;;29.91;36.74;97060.09;5041465;28;20044;-64
2021/06/12 05:32:14;;;;;;;6.35;4.35;;;;;;;29.99;37.47;97066.13;5036507;28;20106;-64
2021/06/12 05:34:41;;;;;;;7.07;4.10;;;;;;;30.55;36.44;97065.44;5049849;28;20075;-64
2021/06/12 05:37:07;;;;;;;8.02;4.40;;;;;;;30.14;36.68;97070.97;5049715;28;20047;-64
2021/06/12 05:39:32;;;;;;;6.57;4.40;;;;;;;30.93;35.28;97080.63;5050563;28;20087;-64
2021/06/12 05:41:57;;;;;;;4.93;4.05;;;;;;;31.55;34.24;97070.78;5051896;28;20071;-63
2021/06/12 05:44:23;;;;;;;7.70;4.50;;;;;;;30.72;34.71;97074.94;5045373;28;20044;-64
2021/06/12 05:46:50;;;;;;;6.78;4.45;;;;;;;28.22;39.08;97070.81;5059169;28;20036;-65
2021/06/12 05:49:16;;;;;;;7.35;4.75;;;;;;;25.50;44.32;97081.06;5055091;28;20178;-63
2021/06/12 05:51:42;;;;;;;6.68;5.03;;;;;;;25.40;45.78;97085.81;5061118;28;20043;-63
2021/06/12 05:54:07;;;;;;;7.10;4.82;;;;;;;24.94;46.33;97091.81;5047033;28;20412;-63
2021/06/12 05:56:32;;;;;;;6.28;5.20;;;;;;;24.54;47.40;97099.97;5052061;28;20477;-63
2021/06/12 05:58:58;;;;;;;6.85;5.25;;;;;;;25.40;44.81;97097.03;5040465;28;20640;-64
2021/06/12 06:01:23;;;;;;;6.20;4.03;;;;;;;26.05;44.44;97103.81;5032214;28;20037;-64
2021/06/12 06:03:49;;;;;;;9.43;4.85;;;;;;;27.11;40.75;97098.34;5040507;28;20452;-64
2021/06/12 06:06:14;;;;;;;7.70;5.28;;;;;;;24.59;46.04;97099.41;5046634;28;20671;-65
2021/06/12 06:08:40;;;;;;;8.45;5.22;;;;;;;23.91;48.33;97096.72;5051691;28;20493;-64
2021/06/12 06:11:05;;;;;;;6.95;4.60;;;;;;;26.70;43.92;97104.06;5040311;28;20041;-66
2021/06/12 06:13:42;;;;;;;8.60;4.78;;;;;;;27.72;41.85;97104.88;5067774;28;20053;-64
2021/06/12 06:16:08;;;;;;;6.40;4.80;;;;;;;28.94;37.51;97103.91;5044044;28;20409;-63
2021/06/12 06:18:35;;;;;;;6.95;4.40;;;;;;;29.29;37.26;97109.00;5040916;28;20052;-64
2021/06/12 06:21:01;;;;;;;5.95;4.47;;;;;;;30.57;34.21;97111.72;5060036;28;20051;-63
2021/06/12 06:23:26;;;;;;;5.88;4.35;;;;;;;31.50;32.73;97113.97;5052454;28;20135;-63
2021/06/12 06:25:52;;;;;;;4.65;4.00;;;;;;;32.10;31.83;97114.28;5050256;28;20136;-64
2021/06/12 06:28:18;;;;;;;6.60;5.15;;;;;;;30.36;34.58;97116.56;5043300;28;20509;-63
2021/06/12 06:30:43;;;;;;;6.07;4.40;;;;;;;30.25;35.25;97117.13;5050450;28;20040;-63
2021/06/12 06:33:09;;;;;;;7.32;4.53;;;;;;;31.75;32.58;97109.59;5042871;28;20037;-63
2021/06/12 06:35:35;;;;;;;6.57;4.80;;;;;;;31.76;32.02;97113.97;5042442;28;20048;-65
2021/06/12 06:38:00;;;;;;;9.75;5.10;;;;;;;31.19;33.65;97120.28;5040863;28;20041;-65
2021/06/12 06:40:26;;;;;;;6.90;4.43;;;;;;;31.64;33.32;97126.47;5027562;28;20109;-65
2021/06/12 06:42:51;;;;;;;7.30;5.72;;;;;;;29.41;36.38;97116.41;5026461;28;20040;-62
2021/06/12 06:45:17;;;;;;;6.45;4.50;;;;;;;30.16;35.37;97120.06;5047895;28;20063;-63
2021/06/12 06:47:42;;;;;;;6.10;4.13;;;;;;;30.46;35.94;97114.38;5051882;28;20041;-64
2021/06/12 06:50:08;;;;;;;8.43;4.75;;;;;;;31.11;34.65;97121.97;5047112;28;20052;-63
2021/06/12 06:52:34;;;;;;;6.60;4.78;;;;;;;31.08;34.63;97122.97;5045707;28;20037;-65
2021/06/12 06:54:59;;;;;;;7.25;5.43;;;;;;;31.23;34.28;97115.19;5047810;28;20104;-65
2021/06/12 06:57:25;;;;;;;5.50;4.43;;;;;;;31.72;33.59;97118.31;5042997;28;20388;-65
2021/06/12 06:59:50;;;;;;;6.95;4.75;;;;;;;32.15;32.71;97110.72;5043606;28;20044;-64
2021/06/12 07:02:16;;;;;;;7.55;5.53;;;;;;;31.64;33.75;97115.16;5044141;28;20059;-64
2021/06/12 07:04:41;;;;;;;7.82;5.13;;;;;;;31.87;33.61;97116.13;5048401;28;20489;-63
2021/06/12 07:07:07;;;;;;;9.18;5.07;;;;;;;31.13;34.59;97120.19;5034771;28;20175;-64
2021/06/12 07:09:33;;;;;;;6.85;5.65;;;;;;;30.85;35.03;97123.41;5048027;28;20077;-64
2021/06/12 07:12:01;;;;;;;7.45;5.60;;;;;;;30.31;36.14;97123.63;5048084;28;20032;-63
2021/06/12 07:14:28;;;;;;;6.22;5.25;;;;;;;30.41;36.91;97124.31;5053288;28;20052;-64
2021/06/12 07:16:54;;;;;;;8.35;6.10;;;;;;;31.44;34.31;97121.59;5052375;28;20552;-64
2021/06/12 07:19:22;;;;;;;6.70;5.60;;;;;;;31.93;33.20;97121.84;5054105;28;20076;-65
2021/06/12 07:21:48;;;;;;;9.27;5.88;;;;;;;31.59;33.34;97121.53;5049813;28;20040;-65
2021/06/12 07:24:13;;;;;;;7.28;5.53;;;;;;;31.15;34.69;97120.50;5041891;28;20055;-65
2021/06/12 07:26:39;;;;;;;9.13;5.63;;;;;;;30.27;35.53;97116.63;5052577;28;20051;-63
2021/06/12 07:29:05;;;;;;;10.45;5.68;;;;;;;30.67;35.74;97107.50;5027781;28;20036;-64
2021/06/12 07:31:30;;;;;;;6.93;6.00;;;;;;;30.01;36.88;97113.66;5051217;28;20044;-63
2021/06/12 07:33:56;;;;;;;8.27;5.88;;;;;;;28.69;39.89;97114.41;5059734;28;20040;-63
2021/06/12 07:36:22;;;;;;;9.82;6.05;;;;;;;27.80;42.13;97113.75;5058313;28;20044;-64
2021/06/12 07:38:47;;;;;;;8.93;6.25;;;;;;;28.07;41.33;97112.91;5054749;28;20128;-63
2021/06/12 07:41:13;;;;;;;7.00;5.78;;;;;;;28.30;41.55;97113.47;5052415;28;20123;-64
2021/06/12 07:43:38;;;;;;;9.85;6.78;;;;;;;29.07;39.72;97112.13;5045464;28;20048;-64
2021/06/12 07:46:04;;;;;;;8.38;6.50;;;;;;;28.31;41.97;97115.03;5036139;28;20056;-65
2021/06/12 07:48:29;;;;;;;11.15;6.72;;;;;;;28.52;41.95;97113.22;5061032;28;20078;-65
2021/06/12 07:50:55;;;;;;;9.15;7.07;;;;;;;27.62;43.86;97106.94;5054637;28;20051;-65
2021/06/12 07:53:20;;;;;;;10.70;7.03;;;;;;;29.01;41.09;97116.84;5043043;28;20393;-64
2021/06/12 07:55:45;;;;;;;12.07;7.00;;;;;;;29.81;38.87;97120.75;5043440;28;20769;-64
2021/06/12 07:58:11;;;;;;;9.57;7.43;;;;;;;29.69;39.35;97116.94;5041377;28;20075;-63
2021/06/12 08:00:36;;;;;;;10.70;7.40;;;;;;;29.60;39.69;97114.19;5054701;28;20040;-63
2021/06/12 08:03:02;;;;;;;16.35;8.07;;;;;;;28.42;42.78;97123.75;5050557;28;20070;-65
2021/06/12 08:05:28;;;;;;;9.82;6.65;;;;;;;28.97;41.34;97119.84;5060346;28;20422;-63
2021/06/12 08:07:53;;;;;;;10.52;7.18;;;;;;;29.05;41.07;97123.09;5053080;28;20049;-63
2021/06/12 08:10:19;;;;;;;11.98;7.38;;;;;;;28.42;42.51;97115.31;5057932;28;20722;-64
2021/06/12 08:12:45;;;;;;;11.07;8.05;;;;;;;28.29;43.18;97112.72;5058965;28;20040;-63
2021/06/12 08:15:11;;;;;;;9.52;7.50;;;;;;;28.02;43.77;97107.97;5055498;28;20064;-64
2021/06/12 08:17:36;;;;;;;15.98;8.35;;;;;;;27.00;46.61;97113.63;5052484;28;20564;-64
2021/06/12 08:20:03;;;;;;;10.63;8.75;;;;;;;26.84;47.03;97109.09;5052187;28;20136;-64
2021/06/12 08:22:29;;;;;;;13.25;10.13;;;;;;;26.97;47.38;97111.75;5030261;28;20497;-64
2021/06/12 08:24:54;;;;;;;13.38;8.80;;;;;;;27.48;45.89;97106.78;5065317;28;20047;-64
2021/06/12 08:27:20;;;;;;;10.43;8.57;;;;;;;26.10;48.98;97108.06;5061323;28;20516;-64
2021/06/12 08:29:48;;;;;;;11.07;8.82;;;;;;;26.32;49.20;97105.94;5059697;28;20041;-64
2021/06/12 08:32:14;;;;;;;11.35;8.15;;;;;;;26.55;48.22;97108.69;5058086;28;20041;-64
2021/06/12 08:34:39;;;;;;;9.95;8.15;;;;;;;26.69;47.88;97110.94;5061374;28;20074;-65
2021/06/12 08:37:04;;;;;;;11.27;8.23;;;;;;;27.36;46.18;97106.47;5047023;28;20043;-66
2021/06/12 08:39:31;;;;;;;12.65;8.88;;;;;;;26.09;48.94;97106.47;5057972;28;20040;-64
2021/06/12 08:41:58;;;;;;;13.15;9.02;;;;;;;27.22;45.00;97105.03;5054612;28;20048;-64
2021/06/12 08:44:26;;;;;;;9.25;7.40;;;;;;;28.03;43.81;97103.88;5027702;28;20130;-63
2021/06/12 08:46:52;;;;;;;12.80;8.05;;;;;;;27.97;44.76;97100.16;5035374;28;20048;-64
2021/06/12 08:49:18;;;;;;;11.52;7.72;;;;;;;27.96;44.68;97102.16;5049002;28;20044;-64
2021/06/12 08:51:45;;;;;;;11.05;6.40;;;;;;;28.91;41.16;97096.41;5050772;28;20142;-63
2021/06/12 08:54:18;;;;;;;10.07;7.13;;;;;;;28.38;41.37;97104.22;5038946;28;20044;-65
2021/06/12 08:56:46;;;;;;;9.40;6.43;;;;;;;28.86;40.55;97102.72;5050449;28;20167;-65
2021/06/12 08:59:11;;;;;;;7.95;5.80;;;;;;;28.96;39.00;97099.34;5037025;28;20037;-65
2021/06/12 09:01:37;;;;;;;8.68;6.07;;;;;;;28.82;39.43;97099.28;5044213;28;20122;-65
2021/06/12 09:04:03;;;;;;;13.07;6.75;;;;;;;28.66;40.42;97095.63;5033037;28;20044;-64
2021/06/12 09:06:28;;;;;;;10.80;7.05;;;;;;;29.31;38.95;97095.19;5018326;28;20045;-64
2021/06/12 09:08:53;;;;;;;9.52;6.45;;;;;;;28.80;39.29;97088.50;5059913;28;20098;-64
2021/06/12 09:11:20;;;;;;;9.43;6.70;;;;;;;29.53;38.79;97089.16;5049729;28;20068;-66
2021/06/12 09:13:49;;;;;;;10.13;5.93;;;;;;;29.69;37.82;97090.75;5041310;28;20132;-63
2021/06/12 09:16:41;;;;;;;10.23;7.88;;;;;;;29.41;41.12;97093.06;5047595;28;20041;-63
2021/06/12 09:19:17;;;;;;;10.95;6.47;;;;;;;28.91;40.28;97088.72;5036754;28;20409;-62
2021/06/12 09:21:49;;;;;;;9.68;6.50;;;;;;;28.85;39.50;97099.13;5041557;28;20401;-64
2021/06/12 09:24:24;;;;;;;8.05;6.10;;;;;;;28.87;39.23;97090.19;5047014;28;20443;-62
2021/06/12 09:26:58;;;;;;;7.63;5.82;;;;;;;28.40;39.02;97087.59;5042438;28;20045;-64
2021/06/12 09:29:53;;;;;;;7.93;5.72;;;;;;;28.22;40.00;97084.88;5037886;28;20493;-63
2021/06/12 09:32:21;;;;;;;8.50;6.03;;;;;;;28.25;38.66;97083.91;5034211;28;20698;-63
2021/06/12 09:34:52;;;;;;;6.22;4.90;;;;;;;27.70;39.30;97081.28;5052563;28;20445;-63
2021/06/12 09:37:27;;;;;;;7.25;6.00;;;;;;;27.77;39.82;97090.16;5055433;28;20040;-63
2021/06/12 09:40:00;;;;;;;9.13;5.75;;;;;;;28.45;38.53;97085.38;5050793;28;20040;-63
2021/06/12 09:42:47;;;;;;;9.43;5.40;;;;;;;28.71;39.25;97086.50;5035386;28;20117;-65
2021/06/12 09:45:21;;;;;;;9.60;5.78;;;;;;;29.19;38.37;97082.91;5044019;28;20052;-63
2021/06/12 09:47:47;;;;;;;7.40;5.47;;;;;;;28.98;38.04;97081.94;5060435;28;20039;-64
2021/06/12 09:50:15;;;;;;;8.20;5.78;;;;;;;29.03;38.01;97086.13;5054635;28;20033;-64
2021/06/12 09:52:51;;;;;;;6.97;5.55;;;;;;;28.95;38.21;97089.31;5054353;28;20052;-64
2021/06/12 09:55:27;;;;;;;9.43;7.55;;;;;;;28.94;40.34;97092.63;5051195;28;20037;-64
2021/06/12 09:57:54;;;;;;;7.20;5.70;;;;;;;29.02;39.42;97093.03;5060616;28;21469;-65
2021/06/12 10:00:38;;;;;;;7.38;5.47;;;;;;;29.46;38.46;97095.19;5048370;28;20485;-63
2021/06/12 10:03:15;;;;;;;7.55;5.47;;;;;;;29.49;36.16;97083.72;5038542;28;20037;-66
2021/06/12 10:05:40;;;;;;;7.82;5.10;;;;;;;30.17;36.10;97086.94;5051813;28;20135;-64
2021/06/12 10:08:06;;;;;;;6.53;4.80;;;;;;;29.93;36.18;97097.09;5049609;28;20113;-64
2021/06/12 10:10:31;;;;;;;7.28;4.97;;;;;;;29.40;36.95;97092.28;5055391;28;20381;-63
2021/06/12 10:12:59;;;;;;;9.52;4.93;;;;;;;29.55;36.39;97097.94;5060329;28;20604;-64
2021/06/12 10:15:25;;;;;;;11.38;8.25;;;;;;;29.51;40.26;97092.50;5055351;28;20048;-64
2021/06/12 10:17:52;;;;;;;9.57;7.18;;;;;;;29.55;40.49;97093.06;5057118;28;20488;-64
2021/06/12 10:20:21;;;;;;;12.45;8.23;;;;;;;28.89;41.42;97088.44;5046503;28;20048;-61
2021/06/12 10:22:48;;;;;;;10.52;7.38;;;;;;;27.90;43.70;97100.47;5043311;28;20049;-63
2021/06/12 10:25:15;;;;;;;10.13;7.30;;;;;;;27.79;42.63;97089.69;5036421;28;20091;-64
2021/06/12 10:27:42;;;;;;;12.25;8.38;;;;;;;27.15;45.88;97093.34;5025763;28;20036;-63
2021/06/12 10:30:09;;;;;;;10.93;8.88;;;;;;;27.64;45.00;97089.56;5048247;28;20076;-62
2021/06/12 10:32:42;;;;;;;12.18;8.30;;;;;;;27.95;46.55;97086.53;5048886;28;20048;-63
2021/06/12 10:35:08;;;;;;;11.70;8.65;;;;;;;27.69;46.50;97080.47;5034227;28;20453;-63
2021/06/12 10:38:00;;;;;;;15.38;9.18;;;;;;;27.03;47.47;97090.22;5040816;28;20129;-61
2021/06/12 10:40:40;;;;;;;14.55;8.65;;;;;;;27.13;48.25;97088.19;5030458;28;20693;-63
2021/06/12 10:43:19;;;;;;;14.00;10.57;;;;;;;26.75;48.55;97085.81;5014547;28;20044;-61
2021/06/12 10:45:46;;;;;;;;;;;;;;;26.88;47.92;97075.22;5049673;28;20090;-63
2021/06/12 10:48:36;;;;;;;11.63;8.30;;;;;;;27.21;48.43;97072.56;5035029;28;19919;-64
2021/06/12 10:51:02;;;;;;;15.55;8.82;;;;;;;27.36;47.32;97071.97;5040215;28;20493;-63
2021/06/12 10:53:33;;;;;;;9.70;8.38;;;;;;;27.24;47.01;97070.84;5034851;28;20087;-62
2021/06/12 10:56:00;;;;;;;10.23;8.13;;;;;;;27.62;46.30;97069.56;5055874;28;20461;-64
2021/06/12 10:58:29;;;;;;;11.60;8.70;;;;;;;27.81;44.65;97067.50;5032454;28;20671;-64
2021/06/12 11:01:07;;;;;;;8.50;6.83;;;;;;;27.73;44.28;97067.06;5051621;28;20804;-64
2021/06/12 11:04:10;;;;;;;8.52;7.38;;;;;;;27.97;45.57;97060.75;5059502;28;20287;-63
2021/06/12 11:06:58;;;;;;;14.88;9.27;;;;;;;27.81;46.38;97059.81;5041382;28;20040;-63
2021/06/12 11:09:29;;;;;;;10.20;8.00;;;;;;;26.78;47.80;97063.19;5050998;28;20045;-64
2021/06/12 11:12:13;;;;;;;10.63;7.88;;;;;;;27.48;46.22;97062.56;5049809;28;20041;-64
2021/06/12 11:14:38;;;;;;;13.25;8.10;;;;;;;27.60;45.57;97058.00;5040963;28;20052;-63
2021/06/12 11:17:04;;;;;;;10.27;7.68;;;;;;;28.11;44.39;97053.63;5055929;28;20044;-64
2021/06/12 11:19:30;;;;;;;9.63;6.72;;;;;;;28.15;44.43;97059.88;5031595;28;20118;-63
2021/06/12 11:22:23;;;;;;;9.88;6.65;;;;;;;28.56;42.34;97060.31;5041475;28;20056;-62
2021/06/12 11:24:51;;;;;;;9.32;7.15;;;;;;;28.83;42.89;97042.44;5058304;28;20056;-63
2021/06/12 11:27:27;;;;;;;9.20;7.32;;;;;;;29.00;41.79;97039.19;5045890;28;20037;-63
2021/06/12 11:30:14;;;;;;;8.88;6.85;;;;;;;28.62;41.25;97052.75;5041402;28;20094;-63
2021/06/12 11:32:43;;;;;;;8.55;6.93;;;;;;;28.20;42.76;97042.34;5057998;28;20040;-63